Time;durP1;ratioP1;P1;durP2;ratioP2;P2;SDS_P1;SDS_P2;PMS_P1;PMS_P2;Temp;Humidity;BMP_temperature;BMP_pressure;BME280_temperature;BME280_humidity;BME280_pressure;Samples;Min_cycle;Max_cycle;Signal;HPM_P1;HPM_P2
2023/04/02 00:00:03;;;;;;;5.82;1.60;;;7.20;99.90;;;;;;5071592;28;20097;-65
2023/04/02 00:02:30;;;;;;;4.10;1.60;;;7.20;99.90;;;;;;5069595;28;20020;-66
2023/04/02 00:05:19;;;;;;;4.53;1.50;;;7.20;99.90;;;;;;5086125;28;20032;-67
2023/04/02 00:07:51;;;;;;;4.75;1.63;;;7.10;99.90;;;;;;5087241;28;20057;-66
2023/04/02 00:10:31;;;;;;;3.33;1.80;;;7.10;99.90;;;;;;5086844;28;20035;-67
2023/04/02 00:13:28;;;;;;;2.25;1.35;;;7.10;99.90;;;;;;5088159;28;20069;-67
2023/04/02 00:15:56;;;;;;;4.15;1.60;;;7.00;99.90;;;;;;5088835;28;20107;-65
2023/04/02 00:18:23;;;;;;;4.63;1.88;;;7.00;99.90;;;;;;5085725;28;20036;-66
2023/04/02 00:21:11;;;;;;;2.75;1.33;;;7.00;99.90;;;;;;5088391;28;20036;-66
2023/04/02 00:23:42;;;;;;;1.98;1.20;;;7.00;99.90;;;;;;5051058;28;20028;-66
2023/04/02 00:26:36;;;;;;;5.10;1.30;;;7.00;99.90;;;;;;5088321;28;20048;-66
2023/04/02 00:29:04;;;;;;;4.40;1.20;;;7.00;99.90;;;;;;5068643;28;20040;-67
2023/04/02 00:31:31;;;;;;;1.98;0.98;;;7.00;99.90;;;;;;5067315;28;20056;-66
2023/04/02 00:33:59;;;;;;;2.38;0.98;;;7.00;99.90;;;;;;5086600;28;20028;-66
2023/04/02 00:36:29;;;;;;;3.72;1.05;;;7.00;99.90;;;;;;5090639;28;20032;-66
2023/04/02 00:38:58;;;;;;;2.87;0.63;;;6.90;99.90;;;;;;5072182;28;20032;-66
2023/04/02 00:41:28;;;;;;;2.67;0.90;;;6.90;99.90;;;;;;5091042;28;20081;-66
2023/04/02 00:43:56;;;;;;;2.25;0.93;;;6.90;99.90;;;;;;5085366;28;20038;-66
2023/04/02 00:46:30;;;;;;;2.25;0.80;;;6.90;99.90;;;;;;5070447;28;20028;-67
2023/04/02 00:49:08;;;;;;;4.28;0.90;;;7.00;99.90;;;;;;5089954;28;20512;-67
2023/04/02 00:51:59;;;;;;;1.73;0.77;;;7.00;99.90;;;;;;5072271;28;20039;-67
2023/04/02 00:54:26;;;;;;;;;;;6.90;99.90;;;;;;5072009;28;20488;-66
2023/04/02 00:56:56;;;;;;;5.75;0.70;;;6.90;99.90;;;;;;5090632;28;19927;-67
2023/04/02 00:59:34;;;;;;;2.67;0.80;;;6.90;99.90;;;;;;5090855;28;20023;-67
2023/04/02 01:02:25;;;;;;;2.33;0.80;;;6.90;99.90;;;;;;5060493;28;20024;-66
2023/04/02 01:04:55;;;;;;;3.80;0.82;;;6.90;99.90;;;;;;5090134;28;20032;-66
2023/04/02 01:07:47;;;;;;;2.70;0.98;;;6.90;99.90;;;;;;5088362;28;20487;-67
2023/04/02 01:10:32;;;;;;;1.65;0.77;;;6.90;99.90;;;;;;5056578;28;20032;-67
2023/04/02 01:13:26;;;;;;;3.75;0.77;;;6.90;99.90;;;;;;5087415;28;20102;-66
2023/04/02 01:15:59;;;;;;;3.40;0.80;;;6.90;99.90;;;;;;5090083;28;20107;-67
2023/04/02 01:18:49;;;;;;;2.03;0.75;;;6.90;99.90;;;;;;5090000;28;20025;-67
2023/04/02 01:21:29;;;;;;;2.22;0.80;;;6.90;99.90;;;;;;5071691;28;20020;-67
2023/04/02 01:23:58;;;;;;;0.65;0.38;;;6.90;99.90;;;;;;5088840;28;20742;-67
2023/04/02 01:26:53;;;;;;;1.40;0.60;;;6.90;99.90;;;;;;5089327;28;20039;-66
2023/04/02 01:29:22;;;;;;;1.65;0.50;;;6.90;99.90;;;;;;5090215;28;20472;-67
2023/04/02 01:31:50;;;;;;;1.10;0.40;;;6.90;99.90;;;;;;5089765;28;20020;-66
2023/04/02 01:34:20;;;;;;;2.58;0.57;;;6.90;99.90;;;;;;5090635;28;20020;-67
2023/04/02 01:36:54;;;;;;;1.38;0.45;;;6.90;99.90;;;;;;5089608;28;20695;-67
2023/04/02 01:39:38;;;;;;;2.92;0.60;;;6.90;99.90;;;;;;5086894;28;20040;-68
2023/04/02 01:42:04;;;;;;;1.38;0.47;;;7.00;99.90;;;;;;5084822;28;20032;-67
2023/04/02 01:44:49;;;;;;;1.00;0.45;;;7.00;99.90;;;;;;5089795;28;20039;-66
2023/04/02 01:47:21;;;;;;;2.25;0.45;;;6.90;99.90;;;;;;5089914;28;20035;-66
2023/04/02 01:49:47;;;;;;;1.85;0.50;;;6.90;99.90;;;;;;5071237;28;20360;-66
2023/04/02 01:52:18;;;;;;;1.48;0.43;;;7.00;99.90;;;;;;5089251;28;20020;-66
2023/04/02 01:54:46;;;;;;;;;;;7.00;99.90;;;;;;5088621;28;20024;-66
2023/04/02 01:57:12;;;;;;;1.92;0.47;;;7.00;99.90;;;;;;5090392;28;19907;-66
2023/04/02 01:59:38;;;;;;;1.20;0.50;;;7.00;99.90;;;;;;5087020;28;20536;-66
2023/04/02 02:02:11;;;;;;;2.67;0.55;;;7.00;99.90;;;;;;5088915;28;20040;-66
2023/04/02 02:04:39;;;;;;;1.05;0.60;;;7.00;99.90;;;;;;5088386;28;20076;-66
2023/04/02 02:07:13;;;;;;;1.80;0.22;;;7.00;99.90;;;;;;5088747;28;20020;-66
2023/04/02 02:09:39;;;;;;;1.52;0.40;;;7.00;99.90;;;;;;5083337;28;20023;-67
2023/04/02 02:12:05;;;;;;;1.30;0.40;;;7.00;99.90;;;;;;5084949;28;20024;-66
2023/04/02 02:14:32;;;;;;;1.27;0.40;;;7.00;99.90;;;;;;5087500;28;20380;-66
2023/04/02 02:17:01;;;;;;;1.77;0.40;;;7.00;99.90;;;;;;5090393;28;20049;-67
2023/04/02 02:19:40;;;;;;;1.52;0.38;;;6.90;99.90;;;;;;5087083;28;20464;-66
2023/04/02 02:22:18;;;;;;;1.20;0.40;;;7.00;99.90;;;;;;5090013;28;20036;-67
2023/04/02 02:24:44;;;;;;;1.15;0.40;;;6.90;99.90;;;;;;5088604;28;20028;-66
2023/04/02 02:27:22;;;;;;;0.90;0.43;;;6.90;99.90;;;;;;5088598;28;20066;-67
2023/04/02 02:29:52;;;;;;;2.53;0.40;;;7.00;99.90;;;;;;5088666;28;20032;-66
2023/04/02 02:32:20;;;;;;;;;;;7.00;99.90;;;;;;5088012;28;20020;-67
2023/04/02 02:34:59;;;;;;;2.08;0.32;;;6.90;99.90;;;;;;5087964;28;19912;-67
2023/04/02 02:37:33;;;;;;;7.00;0.52;;;7.00;99.90;;;;;;5088424;28;20020;-67
2023/04/02 02:40:03;;;;;;;0.68;0.30;;;6.90;99.90;;;;;;5089543;28;20102;-66
2023/04/02 02:42:39;;;;;;;0.82;0.40;;;6.90;99.90;;;;;;5084626;28;20032;-66
2023/04/02 02:45:12;;;;;;;1.02;0.40;;;6.90;99.90;;;;;;5089646;28;20028;-66
2023/04/02 02:47:41;;;;;;;4.13;0.60;;;6.90;99.90;;;;;;5080199;28;20154;-67
2023/04/02 02:50:12;;;;;;;0.95;0.40;;;6.90;99.90;;;;;;5088090;28;20023;-67
2023/04/02 02:52:38;;;;;;;1.40;0.52;;;6.90;99.90;;;;;;5088640;28;20435;-67
2023/04/02 02:55:14;;;;;;;1.88;0.45;;;6.90;99.90;;;;;;5088691;28;20035;-67
2023/04/02 02:57:54;;;;;;;0.77;0.32;;;6.80;99.90;;;;;;5085753;28;20350;-67
2023/04/02 03:00:23;;;;;;;0.98;0.40;;;6.80;99.90;;;;;;5085838;28;20073;-68
2023/04/02 03:02:52;;;;;;;1.10;0.40;;;6.90;99.90;;;;;;5070456;28;20039;-67
2023/04/02 03:05:22;;;;;;;2.85;0.40;;;6.80;99.90;;;;;;5088861;28;20063;-67
2023/04/02 03:07:51;;;;;;;1.20;0.40;;;6.80;99.90;;;;;;5070327;28;20093;-67
2023/04/02 03:10:42;;;;;;;1.00;0.40;;;6.80;99.90;;;;;;5087072;28;20097;-67
2023/04/02 03:13:23;;;;;;;3.40;0.60;;;6.90;99.90;;;;;;5088617;28;20463;-66
2023/04/02 03:16:10;;;;;;;1.42;0.40;;;6.80;99.90;;;;;;5085516;28;20035;-66
2023/04/02 03:19:01;;;;;;;0.70;0.40;;;6.80;99.90;;;;;;5085116;28;20039;-68
2023/04/02 03:21:30;;;;;;;;;;;6.80;99.90;;;;;;5085915;28;20038;-67
2023/04/02 03:24:06;;;;;;;1.90;0.60;;;6.80;99.90;;;;;;5087679;28;19912;-67
2023/04/02 03:26:38;;;;;;;1.15;0.50;;;6.80;99.90;;;;;;5087915;28;20467;-67
2023/04/02 03:29:15;;;;;;;3.05;0.50;;;6.80;99.90;;;;;;5084936;28;20071;-67
2023/04/02 03:31:49;;;;;;;0.95;0.40;;;6.80;99.90;;;;;;5069855;28;20418;-66
2023/04/02 03:34:40;;;;;;;1.92;0.50;;;6.80;99.90;;;;;;5087827;28;20027;-67
2023/04/02 03:37:20;;;;;;;3.30;0.75;;;6.80;99.90;;;;;;5088851;28;20111;-67
2023/04/02 03:39:49;;;;;;;;;;;6.80;99.90;;;;;;5088506;28;20032;-67
2023/04/02 03:42:24;;;;;;;1.65;0.50;;;6.80;99.90;;;;;;5088588;28;20523;-67
2023/04/02 03:45:18;;;;;;;1.73;0.52;;;6.80;99.90;;;;;;5069283;28;20024;-67
2023/04/02 03:47:54;;;;;;;4.10;0.82;;;6.80;99.90;;;;;;5087084;28;20043;-66
2023/04/02 03:50:30;;;;;;;1.45;0.55;;;6.70;99.90;;;;;;5088833;28;20062;-67
2023/04/02 03:52:58;;;;;;;0.98;0.50;;;6.70;99.90;;;;;;5088508;28;20529;-67
2023/04/02 03:55:28;;;;;;;0.65;0.50;;;6.70;99.90;;;;;;5088415;28;20024;-67
2023/04/02 03:58:21;;;;;;;2.65;0.77;;;6.70;99.90;;;;;;5087540;28;20035;-66
2023/04/02 04:00:57;;;;;;;2.53;0.90;;;6.70;99.90;;;;;;5068659;28;20093;-67
2023/04/02 04:03:39;;;;;;;0.73;0.40;;;6.70;99.90;;;;;;5071226;28;20016;-67
2023/04/02 04:06:09;;;;;;;2.65;0.50;;;6.70;99.90;;;;;;5088379;28;20414;-67
2023/04/02 04:08:43;;;;;;;1.88;0.50;;;6.70;99.90;;;;;;5087725;28;20448;-66
2023/04/02 04:11:15;;;;;;;2.47;0.70;;;6.70;99.90;;;;;;5091497;28;20028;-66
2023/04/02 04:14:10;;;;;;;1.30;0.70;;;6.70;99.90;;;;;;5078369;28;20032;-68
2023/04/02 04:17:08;;;;;;;2.03;0.60;;;6.70;99.90;;;;;;5087625;28;20024;-67
2023/04/02 04:19:47;;;;;;;4.78;0.77;;;6.70;99.90;;;;;;5020461;28;20105;-66
2023/04/02 04:22:32;;;;;;;3.30;1.08;;;6.70;99.90;;;;;;5092572;28;20024;-67
2023/04/02 04:25:01;;;;;;;3.97;1.05;;;6.70;99.90;;;;;;5092220;28;20016;-67
2023/04/02 04:27:56;;;;;;;1.80;0.90;;;6.70;99.90;;;;;;5091622;28;20056;-68
2023/04/02 04:30:35;;;;;;;2.95;0.90;;;6.70;99.90;;;;;;5091850;28;20051;-67
2023/04/02 04:33:10;;;;;;;1.13;0.68;;;6.70;99.90;;;;;;5091024;28;20020;-68
2023/04/02 04:35:38;;;;;;;1.65;1.02;;;6.80;99.90;;;;;;5091167;28;20032;-67
2023/04/02 04:38:14;;;;;;;3.20;1.13;;;6.80;99.90;;;;;;5090759;28;20028;-67
2023/04/02 04:40:53;;;;;;;2.60;1.30;;;6.80;99.90;;;;;;5091081;28;20024;-66
2023/04/02 04:43:36;;;;;;;2.53;1.10;;;6.80;99.90;;;;;;5091921;28;20027;-66
2023/04/02 04:46:13;;;;;;;1.48;0.80;;;6.70;99.90;;;;;;5090949;28;20016;-67
2023/04/02 04:48:56;;;;;;;2.25;1.20;;;6.80;99.90;;;;;;5090924;28;20043;-66
2023/04/02 04:51:34;;;;;;;2.58;0.88;;;6.80;99.90;;;;;;5091847;28;20032;-67
2023/04/02 04:53:59;;;;;;;3.30;1.10;;;6.80;99.90;;;;;;5090343;28;20472;-67
2023/04/02 04:56:29;;;;;;;2.60;1.00;;;6.80;99.90;;;;;;5091512;28;20048;-67
2023/04/02 04:59:11;;;;;;;2.90;1.05;;;6.80;99.90;;;;;;5091325;28;20460;-66
2023/04/02 05:01:48;;;;;;;3.22;1.73;;;6.80;99.90;;;;;;5087503;28;20020;-67
2023/04/02 05:04:50;;;;;;;4.65;1.13;;;6.80;99.90;;;;;;5090046;28;20468;-66
2023/04/02 05:07:28;;;;;;;1.88;1.05;;;6.80;99.90;;;;;;5034317;28;20047;-67
2023/04/02 05:10:19;;;;;;;3.22;1.05;;;6.80;99.90;;;;;;5090898;28;20030;-67
2023/04/02 05:12:50;;;;;;;2.20;1.10;;;6.80;99.90;;;;;;5090646;28;20035;-66
2023/04/02 05:15:49;;;;;;;1.90;1.05;;;6.80;99.90;;;;;;5089962;28;20096;-67
2023/04/02 05:18:30;;;;;;;1.73;0.80;;;6.80;99.90;;;;;;5073505;28;20094;-67
2023/04/02 05:21:13;;;;;;;3.15;1.30;;;6.80;99.90;;;;;;5088889;28;20804;-67
2023/04/02 05:24:16;;;;;;;3.00;1.30;;;6.80;99.90;;;;;;5082243;28;20451;-67
2023/04/02 05:26:46;;;;;;;2.63;1.20;;;6.80;99.90;;;;;;5089666;28;20122;-66
2023/04/02 05:29:23;;;;;;;2.20;1.33;;;6.80;99.90;;;;;;5081012;28;20024;-67
2023/04/02 05:32:17;;;;;;;3.65;1.30;;;6.80;99.90;;;;;;5087938;28;20139;-68
2023/04/02 05:34:50;;;;;;;3.45;1.40;;;6.80;99.90;;;;;;5081691;28;20409;-67
2023/04/02 05:37:20;;;;;;;2.45;1.23;;;6.80;99.90;;;;;;5070179;28;20371;-69
2023/04/02 05:39:51;;;;;;;2.95;1.85;;;6.80;99.90;;;;;;5081903;28;20043;-68
2023/04/02 05:42:23;;;;;;;5.93;1.60;;;6.80;99.90;;;;;;5088955;28;20032;-67
2023/04/02 05:45:08;;;;;;;2.70;1.42;;;6.80;99.90;;;;;;5085957;28;20028;-70
2023/04/02 05:47:39;;;;;;;2.45;1.30;;;6.90;99.90;;;;;;5071718;28;20581;-70
2023/04/02 05:50:08;;;;;;;2.92;1.65;;;6.90;99.90;;;;;;5071097;28;20040;-67
2023/04/02 05:52:49;;;;;;;5.22;1.65;;;6.90;99.90;;;;;;5086040;28;20032;-70
2023/04/02 05:55:37;;;;;;;2.10;0.98;;;6.80;99.90;;;;;;5071616;28;20020;-66
2023/04/02 05:58:21;;;;;;;2.88;1.13;;;6.90;99.90;;;;;;5087912;28;20122;-66
2023/04/02 06:01:14;;;;;;;3.33;1.30;;;6.90;99.90;;;;;;5086452;28;20082;-66
2023/04/02 06:04:09;;;;;;;5.53;1.48;;;6.90;99.90;;;;;;5075955;28;20032;-67
2023/04/02 06:06:38;;;;;;;3.22;1.13;;;6.90;99.90;;;;;;5070734;28;20035;-69
2023/04/02 06:09:11;;;;;;;5.13;1.40;;;6.90;99.90;;;;;;5069227;28;20036;-67
2023/04/02 06:11:44;;;;;;;4.55;1.40;;;6.90;99.90;;;;;;5078692;28;20440;-67
2023/04/02 06:14:12;;;;;;;3.75;1.13;;;6.90;99.90;;;;;;5082590;28;20068;-66
2023/04/02 06:16:39;;;;;;;3.78;1.33;;;6.90;99.90;;;;;;5085135;28;20040;-66
2023/04/02 06:19:13;;;;;;;2.60;1.33;;;6.90;99.90;;;;;;5066598;28;20487;-66
2023/04/02 06:21:48;;;;;;;3.70;1.58;;;6.90;99.90;;;;;;5089135;28;20036;-67
2023/04/02 06:24:18;;;;;;;5.65;1.33;;;6.90;99.90;;;;;;5064236;28;20028;-66
2023/04/02 06:26:56;;;;;;;3.65;1.45;;;6.90;99.90;;;;;;5067975;28;20051;-68
2023/04/02 06:29:38;;;;;;;4.45;1.90;;;6.90;99.90;;;;;;5069434;28;20067;-66
2023/04/02 06:32:07;;;;;;;4.10;1.77;;;7.00;99.90;;;;;;5080285;28;20475;-67
2023/04/02 06:34:36;;;;;;;6.45;1.67;;;6.90;99.90;;;;;;5072671;28;20016;-70
2023/04/02 06:37:30;;;;;;;3.97;1.60;;;7.00;99.90;;;;;;5070939;28;20024;-66
2023/04/02 06:39:57;;;;;;;5.25;1.80;;;7.00;99.90;;;;;;5082322;28;20555;-71
2023/04/02 06:42:34;;;;;;;3.65;1.85;;;7.00;99.90;;;;;;5088878;28;20024;-65
2023/04/02 06:45:00;;;;;;;8.30;2.17;;;7.00;99.90;;;;;;5066061;28;20078;-66
2023/04/02 06:47:32;;;;;;;10.57;3.80;;;7.00;99.90;;;;;;5081321;28;20032;-67
2023/04/02 06:50:12;;;;;;;4.18;1.95;;;7.00;99.90;;;;;;5087253;28;20024;-65
2023/04/02 06:52:48;;;;;;;3.47;2.05;;;7.00;99.90;;;;;;5068352;28;20029;-70
2023/04/02 06:55:29;;;;;;;8.07;1.80;;;7.00;99.90;;;;;;5080599;28;20535;-66
2023/04/02 06:57:54;;;;;;;3.83;1.83;;;7.10;99.90;;;;;;5084245;28;20119;-66
2023/04/02 07:00:27;;;;;;;6.20;2.25;;;7.10;99.90;;;;;;5068823;28;20512;-68
2023/04/02 07:02:55;;;;;;;4.63;1.98;;;7.10;99.90;;;;;;5080020;28;20034;-66
2023/04/02 07:05:20;;;;;;;3.97;1.80;;;7.10;99.90;;;;;;5081477;28;20028;-67
2023/04/02 07:07:46;;;;;;;8.00;1.90;;;7.10;99.90;;;;;;5068223;28;20039;-67
2023/04/02 07:10:12;;;;;;;5.65;1.80;;;7.10;99.90;;;;;;5070298;28;20023;-66
2023/04/02 07:12:37;;;;;;;6.10;1.60;;;7.10;99.90;;;;;;5086008;28;20099;-70
2023/04/02 07:15:03;;;;;;;4.93;2.10;;;7.10;99.90;;;;;;5066117;28;20035;-67
2023/04/02 07:17:29;;;;;;;2.97;1.85;;;7.10;99.90;;;;;;5086316;28;20028;-66
2023/04/02 07:19:55;;;;;;;5.93;2.50;;;7.00;99.90;;;;;;5085743;28;20191;-68
2023/04/02 07:22:21;;;;;;;6.07;2.30;;;7.00;99.90;;;;;;5088779;28;20099;-68
2023/04/02 07:24:47;;;;;;;4.68;2.22;;;7.10;99.90;;;;;;5060181;28;20028;-66
2023/04/02 07:27:14;;;;;;;7.50;3.00;;;7.10;99.90;;;;;;5082579;28;20040;-65
2023/04/02 07:29:43;;;;;;;5.55;2.40;;;7.10;99.90;;;;;;5072995;28;20039;-67
2023/04/02 07:32:13;;;;;;;9.55;3.05;;;7.10;99.90;;;;;;5068721;28;20060;-66
2023/04/02 07:34:40;;;;;;;5.38;2.88;;;7.20;99.90;;;;;;5076770;28;20090;-69
2023/04/02 07:37:06;;;;;;;6.82;2.55;;;7.20;99.90;;;;;;5085237;28;20154;-64
2023/04/02 07:39:32;;;;;;;6.32;2.60;;;7.20;99.90;;;;;;5075745;28;20062;-64
2023/04/02 07:41:59;;;;;;;4.28;2.60;;;7.30;99.90;;;;;;5064796;28;20075;-64
2023/04/02 07:44:25;;;;;;;4.70;2.40;;;7.30;99.90;;;;;;5088688;28;20055;-72
2023/04/02 07:46:51;;;;;;;4.40;2.08;;;7.30;99.90;;;;;;5085111;28;20069;-69
2023/04/02 07:49:17;;;;;;;4.10;2.00;;;7.30;99.90;;;;;;5083052;28;20036;-60
2023/04/02 07:51:42;;;;;;;4.60;2.25;;;7.30;99.90;;;;;;5090730;28;20027;-61
2023/04/02 07:54:09;;;;;;;6.10;2.53;;;7.40;99.90;;;;;;5077253;28;20024;-61
2023/04/02 07:56:35;;;;;;;2.88;1.70;;;7.40;99.90;;;;;;5092303;28;20056;-61
2023/04/02 07:59:02;;;;;;;4.60;1.98;;;7.40;99.90;;;;;;5080931;28;20032;-61
2023/04/02 08:01:28;;;;;;;5.90;2.20;;;7.40;99.90;;;;;;5090633;28;20103;-61
2023/04/02 08:03:56;;;;;;;6.80;2.25;;;7.40;99.90;;;;;;5087944;28;20091;-61
2023/04/02 08:06:23;;;;;;;7.32;1.80;;;7.40;99.90;;;;;;5091805;28;20341;-61
2023/04/02 08:08:49;;;;;;;3.92;1.77;;;7.40;99.90;;;;;;5086376;28;20032;-61
2023/04/02 08:11:15;;;;;;;6.88;2.13;;;7.40;99.90;;;;;;5090820;28;20678;-60
2023/04/02 08:13:41;;;;;;;5.05;2.05;;;7.40;99.90;;;;;;5082056;28;20032;-62
2023/04/02 08:16:07;;;;;;;4.97;2.00;;;7.50;99.90;;;;;;5084930;28;20474;-61
2023/04/02 08:18:33;;;;;;;6.70;1.90;;;7.50;99.90;;;;;;5084186;28;20534;-62
2023/04/02 08:20:59;;;;;;;6.00;2.75;;;7.50;99.90;;;;;;5088341;28;20107;-61
2023/04/02 08:23:25;;;;;;;3.55;1.92;;;7.50;99.90;;;;;;5066091;28;20020;-60
2023/04/02 08:25:52;;;;;;;5.13;2.15;;;7.50;99.90;;;;;;5083047;28;20062;-62
2023/04/02 08:28:20;;;;;;;3.08;1.90;;;7.60;99.90;;;;;;5084633;28;20055;-61
2023/04/02 08:30:47;;;;;;;3.95;1.88;;;7.60;99.90;;;;;;5088048;28;20097;-61
2023/04/02 08:33:14;;;;;;;5.72;1.92;;;7.60;99.90;;;;;;5087139;28;20012;-61
2023/04/02 08:35:40;;;;;;;4.43;1.80;;;7.60;99.90;;;;;;5087783;28;20583;-62
2023/04/02 08:38:06;;;;;;;4.53;2.30;;;7.70;99.90;;;;;;5079725;28;20033;-62
2023/04/02 08:40:37;;;;;;;4.45;2.35;;;7.70;99.90;;;;;;5086365;28;20012;-61
2023/04/02 08:43:27;;;;;;;6.30;2.65;;;7.70;99.90;;;;;;5082894;28;20232;-61
2023/04/02 08:46:30;;;;;;;7.07;2.10;;;7.70;99.90;;;;;;5090126;28;20734;-61
2023/04/02 08:49:02;;;;;;;6.70;2.40;;;7.70;99.90;;;;;;5079927;28;20480;-61
2023/04/02 08:51:32;;;;;;;5.03;2.30;;;7.60;99.90;;;;;;5091136;28;20051;-61
2023/04/02 08:54:07;;;;;;;6.30;2.33;;;7.60;99.90;;;;;;5079721;28;20020;-61
2023/04/02 08:56:48;;;;;;;6.65;2.35;;;7.60;99.90;;;;;;5083849;28;20517;-61
2023/04/02 08:59:29;;;;;;;5.82;2.45;;;7.60;99.90;;;;;;5069025;28;20096;-61
2023/04/02 09:01:59;;;;;;;8.25;2.10;;;7.60;99.90;;;;;;5090832;28;20032;-61
2023/04/02 09:04:25;;;;;;;6.47;2.25;;;7.70;99.90;;;;;;5075822;28;20020;-61
2023/04/02 09:06:54;;;;;;;6.68;2.30;;;7.70;99.90;;;;;;5088614;28;20025;-61
2023/04/02 09:09:21;;;;;;;3.90;2.50;;;7.70;99.90;;;;;;5085415;28;20024;-61
2023/04/02 09:12:00;;;;;;;3.90;2.20;;;7.80;99.90;;;;;;5085083;28;20050;-61
2023/04/02 09:14:51;;;;;;;4.85;1.90;;;7.80;99.90;;;;;;5083475;28;20036;-62
2023/04/02 09:17:25;;;;;;;4.72;1.85;;;7.80;99.90;;;;;;5071318;28;20476;-61
2023/04/02 09:19:56;;;;;;;5.80;1.77;;;7.80;99.90;;;;;;5079135;28;20128;-60
2023/04/02 09:22:27;;;;;;;7.80;2.03;;;7.80;99.90;;;;;;5084453;28;20024;-61
2023/04/02 09:24:54;;;;;;;3.00;1.80;;;7.80;99.90;;;;;;5085498;28;20024;-61
2023/04/02 09:27:23;;;;;;;3.63;2.03;;;7.90;99.90;;;;;;5088697;28;20040;-61
2023/04/02 09:29:53;;;;;;;5.45;2.20;;;7.90;99.90;;;;;;5089258;28;20020;-60
2023/04/02 09:32:50;;;;;;;3.22;1.60;;;7.90;99.90;;;;;;5085291;28;20037;-61
2023/04/02 09:35:22;;;;;;;3.75;1.80;;;7.90;99.90;;;;;;5087464;28;20036;-62
2023/04/02 09:38:10;;;;;;;5.13;1.98;;;7.90;99.90;;;;;;5088778;28;20020;-63
2023/04/02 09:41:01;;;;;;;3.75;1.65;;;7.80;99.90;;;;;;5083659;28;20031;-61
2023/04/02 09:43:37;;;;;;;3.70;1.90;;;7.90;99.90;;;;;;5089932;28;20020;-61
2023/04/02 09:46:04;;;;;;;4.25;1.90;;;7.90;99.90;;;;;;5088590;28;20047;-61
2023/04/02 09:48:34;;;;;;;3.70;1.95;;;8.00;99.90;;;;;;5083966;28;20028;-60
2023/04/02 09:51:19;;;;;;;6.45;2.20;;;8.00;99.90;;;;;;5082249;28;20028;-61
2023/04/02 09:54:11;;;;;;;5.15;2.38;;;8.00;99.90;;;;;;5080310;28;20036;-62
2023/04/02 09:56:41;;;;;;;7.50;1.88;;;7.90;99.90;;;;;;5082690;28;20042;-61
2023/04/02 09:59:13;;;;;;;4.72;1.73;;;8.00;99.90;;;;;;5082502;28;20031;-61
2023/04/02 10:01:43;;;;;;;3.22;1.77;;;8.00;99.90;;;;;;5090329;28;20030;-61
2023/04/02 10:04:34;;;;;;;4.03;1.90;;;8.00;99.90;;;;;;5088769;28;20077;-61
2023/04/02 10:07:00;;;;;;;4.35;2.00;;;8.00;99.90;;;;;;5088494;28;20021;-61
2023/04/02 10:09:32;;;;;;;4.13;1.80;;;7.90;99.90;;;;;;5086647;28;20109;-62
2023/04/02 10:12:00;;;;;;;2.50;1.70;;;8.00;99.90;;;;;;5085340;28;20032;-61
2023/04/02 10:14:47;;;;;;;7.47;2.20;;;8.00;99.90;;;;;;5089607;28;20035;-62
2023/04/02 10:17:26;;;;;;;3.03;1.95;;;8.00;99.90;;;;;;5090044;28;20020;-61
2023/04/02 10:20:05;;;;;;;4.28;2.05;;;8.00;99.90;;;;;;5089228;28;20409;-61
2023/04/02 10:22:31;;;;;;;3.78;1.85;;;8.00;99.90;;;;;;5090224;28;20024;-61
2023/04/02 10:24:58;;;;;;;4.22;2.00;;;8.00;99.90;;;;;;5089229;28;20028;-62
2023/04/02 10:27:43;;;;;;;3.70;2.00;;;8.10;99.90;;;;;;5088858;28;20044;-62
2023/04/02 10:30:22;;;;;;;4.05;1.98;;;8.20;99.90;;;;;;5089197;28;20060;-61
2023/04/02 10:33:00;;;;;;;8.98;2.10;;;8.30;99.90;;;;;;5089082;28;20444;-63
2023/04/02 10:36:13;;;;;;;4.32;2.10;;;8.30;99.90;;;;;;5088410;28;20107;-62
2023/04/02 10:38:57;;;;;;;3.78;2.00;;;8.30;99.90;;;;;;5055356;28;20097;-61
2023/04/02 10:41:47;;;;;;;2.90;1.88;;;8.40;99.90;;;;;;5069787;28;20025;-61
2023/04/02 10:44:19;;;;;;;7.45;2.83;;;8.50;99.90;;;;;;5070529;28;20053;-61
2023/04/02 10:47:00;;;;;;;7.18;2.10;;;8.50;99.90;;;;;;5089276;28;20364;-61
2023/04/02 10:49:45;;;;;;;5.22;2.30;;;8.60;99.90;;;;;;5071403;28;20024;-62
2023/04/02 10:52:27;;;;;;;5.13;2.60;;;8.70;99.90;;;;;;5089128;28;20032;-61
2023/04/02 10:54:56;;;;;;;5.20;2.22;;;8.80;99.90;;;;;;5088792;28;20448;-61
2023/04/02 10:57:38;;;;;;;5.05;2.20;;;8.80;99.90;;;;;;5086965;28;20042;-61
2023/04/02 11:00:09;;;;;;;5.20;2.05;;;8.90;99.90;;;;;;5086814;28;20163;-61
2023/04/02 11:03:13;;;;;;;3.58;1.90;;;9.00;99.90;;;;;;5083017;28;20066;-62
2023/04/02 11:05:54;;;;;;;3.78;1.98;;;9.00;99.90;;;;;;5058582;28;20043;-62
2023/04/02 11:08:26;;;;;;;;;;;9.10;99.90;;;;;;5080134;28;20027;-61
2023/04/02 11:11:03;;;;;;;2.88;1.13;;;9.30;99.90;;;;;;5088190;28;20382;-63
2023/04/02 11:13:52;;;;;;;2.83;0.95;;;9.40;99.90;;;;;;5078667;28;20031;-61
2023/04/02 11:16:18;;;;;;;3.55;1.00;;;9.40;99.90;;;;;;5087180;28;20024;-62
2023/04/02 11:19:13;;;;;;;3.53;1.17;;;9.50;99.90;;;;;;5087629;28;20028;-61
2023/04/02 11:21:40;;;;;;;1.38;0.80;;;9.60;99.90;;;;;;5087054;28;20032;-61
2023/04/02 11:24:35;;;;;;;1.50;0.80;;;9.70;99.90;;;;;;5076635;28;20368;-62
2023/04/02 11:27:10;;;;;;;2.13;0.95;;;9.80;99.90;;;;;;5083514;28;20123;-61
2023/04/02 11:29:44;;;;;;;2.55;1.00;;;9.80;99.90;;;;;;5086095;28;20052;-61
2023/04/02 11:32:26;;;;;;;2.35;0.85;;;9.70;99.90;;;;;;5062655;28;20020;-61
2023/04/02 11:34:52;;;;;;;2.85;1.10;;;9.80;99.90;;;;;;5074762;28;20020;-63
2023/04/02 11:37:41;;;;;;;3.67;0.93;;;9.70;99.90;;;;;;5075322;28;20025;-62
2023/04/02 11:40:09;;;;;;;3.38;0.80;;;9.80;99.90;;;;;;5076445;28;20032;-61
2023/04/02 11:42:37;;;;;;;0.88;0.65;;;9.70;99.90;;;;;;5086969;28;20049;-61
2023/04/02 11:45:21;;;;;;;1.00;0.52;;;9.70;99.90;;;;;;5087663;28;20024;-61
2023/04/02 11:48:06;;;;;;;1.55;0.55;;;9.80;99.90;;;;;;5085733;28;20063;-61
2023/04/02 11:50:37;;;;;;;0.70;0.50;;;9.80;99.90;;;;;;5075291;28;20024;-61
2023/04/02 11:53:10;;;;;;;1.33;0.57;;;9.80;99.90;;;;;;5085258;28;20022;-61
2023/04/02 11:55:36;;;;;;;1.75;0.75;;;9.90;99.90;;;;;;5086162;28;20028;-63
2023/04/02 11:58:27;;;;;;;1.63;0.90;;;9.90;99.90;;;;;;5085252;28;20039;-61
2023/04/02 12:01:18;;;;;;;2.47;0.60;;;9.90;99.90;;;;;;5067555;28;20078;-63
2023/04/02 12:04:12;;;;;;;2.85;0.73;;;9.90;99.90;;;;;;5074084;28;20089;-61
2023/04/02 12:07:03;;;;;;;1.25;0.52;;;9.90;99.90;;;;;;5084145;28;20032;-62
2023/04/02 12:09:43;;;;;;;2.08;0.70;;;9.80;99.90;;;;;;5039989;28;20095;-61
2023/04/02 12:12:26;;;;;;;1.30;0.90;;;9.80;99.90;;;;;;5067021;28;20025;-61
2023/04/02 12:14:56;;;;;;;1.55;0.75;;;9.90;99.90;;;;;;5067464;28;20029;-63
2023/04/02 12:17:32;;;;;;;1.92;1.00;;;9.90;99.90;;;;;;5068848;28;20017;-61
2023/04/02 12:20:28;;;;;;;2.33;0.50;;;10.00;99.90;;;;;;5087367;28;20074;-61
2023/04/02 12:22:55;;;;;;;1.95;0.80;;;10.10;99.90;;;;;;5078495;28;20036;-64
2023/04/02 12:25:28;;;;;;;1.52;0.75;;;10.10;99.90;;;;;;5085865;28;20024;-61
2023/04/02 12:28:13;;;;;;;2.08;1.00;;;10.30;99.90;;;;;;5087529;28;20407;-63
2023/04/02 12:30:40;;;;;;;3.17;1.20;;;10.40;99.90;;;;;;5088927;28;20029;-61
2023/04/02 12:33:29;;;;;;;2.10;1.00;;;10.50;99.90;;;;;;5091267;28;20054;-62
2023/04/02 12:35:57;;;;;;;1.73;1.20;;;10.50;99.90;;;;;;5091609;28;20016;-63
2023/04/02 12:38:37;;;;;;;2.67;0.90;;;10.60;99.90;;;;;;5092021;28;20452;-61
2023/04/02 12:41:14;;;;;;;3.42;1.20;;;10.70;99.90;;;;;;5073032;28;20031;-61
2023/04/02 12:43:40;;;;;;;1.95;1.08;;;10.70;99.90;;;;;;5090397;28;20169;-61
2023/04/02 12:46:07;;;;;;;2.30;1.42;;;10.70;99.90;;;;;;5091171;28;20103;-61
2023/04/02 12:48:34;;;;;;;2.35;1.42;;;10.70;99.90;;;;;;5087704;28;20213;-61
2023/04/02 12:51:01;;;;;;;1.92;1.38;;;10.80;99.90;;;;;;5082000;28;20021;-62
2023/04/02 12:53:35;;;;;;;2.75;1.65;;;10.80;99.90;;;;;;5083048;28;20077;-61
2023/04/02 12:56:02;;;;;;;2.97;1.95;;;10.70;99.90;;;;;;5086741;28;20070;-61
2023/04/02 12:58:37;;;;;;;3.20;2.30;;;10.40;99.90;;;;;;5080539;28;20376;-61
2023/04/02 13:01:19;;;;;;;1.77;1.40;;;10.20;99.90;;;;;;5070619;28;20027;-61
2023/04/02 13:04:11;;;;;;;1.70;1.10;;;9.90;99.90;;;;;;5080190;28;20032;-60
2023/04/02 13:06:38;;;;;;;2.05;1.20;;;9.60;99.90;;;;;;5090095;28;20456;-61
2023/04/02 13:09:06;;;;;;;2.22;1.67;;;9.60;99.90;;;;;;5079674;28;20073;-61
2023/04/02 13:11:38;;;;;;;3.10;1.90;;;9.60;99.90;;;;;;5081697;28;20020;-61
2023/04/02 13:14:15;;;;;;;2.45;1.77;;;9.50;99.90;;;;;;5080998;28;20024;-61
2023/04/02 13:16:41;;;;;;;1.85;1.30;;;9.40;99.90;;;;;;5090882;28;20036;-61
2023/04/02 13:19:29;;;;;;;2.60;1.30;;;9.50;99.90;;;;;;5083499;28;20413;-61
2023/04/02 13:21:56;;;;;;;2.30;1.40;;;9.50;99.90;;;;;;5085647;28;20020;-63
2023/04/02 13:24:25;;;;;;;5.00;1.50;;;9.50;99.90;;;;;;5082649;28;20027;-61
2023/04/02 13:26:54;;;;;;;3.30;1.80;;;9.40;99.90;;;;;;5090287;28;20781;-61
2023/04/02 13:29:31;;;;;;;3.45;2.22;;;9.40;99.90;;;;;;5081017;28;20088;-61
2023/04/02 13:32:00;;;;;;;2.85;1.70;;;9.40;99.90;;;;;;5085412;28;20024;-63
2023/04/02 13:34:26;;;;;;;5.50;2.00;;;9.40;99.90;;;;;;5083736;28;20031;-69
2023/04/02 13:36:52;;;;;;;2.80;1.70;;;9.30;99.90;;;;;;5084277;28;20024;-70
2023/04/02 13:39:19;;;;;;;3.38;2.10;;;9.20;99.90;;;;;;5085611;28;20039;-71